sensor_id;sensor_type;location;lat;lon;timestamp;P1;durP1;ratioP1;P2;durP2;ratioP2
47021;SDS011;32779;52.264;6.154;2023-11-22T00:01:20;19.50;;;12.85;;
47021;SDS011;32779;52.264;6.154;2023-11-22T00:03:45;18.35;;;13.05;;
47021;SDS011;32779;52.264;6.154;2023-11-22T00:06:11;18.25;;;13.20;;
47021;SDS011;32779;52.264;6.154;2023-11-22T00:08:37;19.02;;;12.48;;
47021;SDS011;32779;52.264;6.154;2023-11-22T00:11:02;17.52;;;12.75;;
47021;SDS011;32779;52.264;6.154;2023-11-22T00:13:28;18.35;;;12.00;;
47021;SDS011;32779;52.264;6.154;2023-11-22T00:15:54;18.27;;;11.77;;
47021;SDS011;32779;52.264;6.154;2023-11-22T00:18:21;16.60;;;11.93;;
47021;SDS011;32779;52.264;6.154;2023-11-22T00:20:47;16.58;;;10.98;;
47021;SDS011;32779;52.264;6.154;2023-11-22T00:23:13;17.02;;;12.05;;
47021;SDS011;32779;52.264;6.154;2023-11-22T00:25:39;17.95;;;12.35;;
47021;SDS011;32779;52.264;6.154;2023-11-22T00:28:05;18.98;;;12.70;;
47021;SDS011;32779;52.264;6.154;2023-11-22T00:30:31;17.42;;;11.88;;
47021;SDS011;32779;52.264;6.154;2023-11-22T00:32:57;17.60;;;11.73;;
47021;SDS011;32779;52.264;6.154;2023-11-22T00:35:23;17.70;;;11.65;;
47021;SDS011;32779;52.264;6.154;2023-11-22T00:37:49;19.00;;;11.88;;
47021;SDS011;32779;52.264;6.154;2023-11-22T00:40:15;21.23;;;11.57;;
47021;SDS011;32779;52.264;6.154;2023-11-22T00:42:41;17.10;;;11.75;;
47021;SDS011;32779;52.264;6.154;2023-11-22T00:45:08;19.98;;;11.95;;
47021;SDS011;32779;52.264;6.154;2023-11-22T00:47:35;15.07;;;11.20;;
47021;SDS011;32779;52.264;6.154;2023-11-22T00:50:01;17.52;;;11.80;;
47021;SDS011;32779;52.264;6.154;2023-11-22T00:52:29;16.73;;;11.43;;
47021;SDS011;32779;52.264;6.154;2023-11-22T00:54:55;16.25;;;11.38;;
47021;SDS011;32779;52.264;6.154;2023-11-22T00:57:21;21.70;;;12.02;;
47021;SDS011;32779;52.264;6.154;2023-11-22T00:59:47;18.45;;;11.65;;
47021;SDS011;32779;52.264;6.154;2023-11-22T01:02:13;17.70;;;11.40;;
47021;SDS011;32779;52.264;6.154;2023-11-22T01:04:39;14.95;;;10.48;;
47021;SDS011;32779;52.264;6.154;2023-11-22T01:07:05;15.13;;;10.65;;
47021;SDS011;32779;52.264;6.154;2023-11-22T01:11:57;16.48;;;11.18;;
47021;SDS011;32779;52.264;6.154;2023-11-22T01:14:23;17.25;;;10.73;;
47021;SDS011;32779;52.264;6.154;2023-11-22T01:16:51;17.15;;;11.13;;
47021;SDS011;32779;52.264;6.154;2023-11-22T01:19:16;18.15;;;11.85;;
47021;SDS011;32779;52.264;6.154;2023-11-22T01:21:42;18.90;;;12.05;;
47021;SDS011;32779;52.264;6.154;2023-11-22T01:24:08;19.17;;;13.05;;
47021;SDS011;32779;52.264;6.154;2023-11-22T01:26:33;17.42;;;12.45;;
47021;SDS011;32779;52.264;6.154;2023-11-22T01:28:59;20.92;;;11.65;;
47021;SDS011;32779;52.264;6.154;2023-11-22T01:31:25;17.45;;;11.85;;
47021;SDS011;32779;52.264;6.154;2023-11-22T01:33:53;18.92;;;12.88;;
47021;SDS011;32779;52.264;6.154;2023-11-22T01:36:19;16.02;;;10.90;;
47021;SDS011;32779;52.264;6.154;2023-11-22T01:38:45;24.38;;;13.52;;
47021;SDS011;32779;52.264;6.154;2023-11-22T01:41:14;21.25;;;13.25;;
47021;SDS011;32779;52.264;6.154;2023-11-22T01:43:39;18.08;;;11.98;;
47021;SDS011;32779;52.264;6.154;2023-11-22T01:46:10;18.67;;;12.48;;
47021;SDS011;32779;52.264;6.154;2023-11-22T01:48:48;19.98;;;13.35;;
47021;SDS011;32779;52.264;6.154;2023-11-22T01:51:15;20.50;;;14.45;;
47021;SDS011;32779;52.264;6.154;2023-11-22T01:53:41;18.08;;;12.88;;
47021;SDS011;32779;52.264;6.154;2023-11-22T01:56:08;22.80;;;13.57;;
47021;SDS011;32779;52.264;6.154;2023-11-22T02:01:00;21.15;;;11.95;;
47021;SDS011;32779;52.264;6.154;2023-11-22T02:03:27;18.83;;;12.68;;
47021;SDS011;32779;52.264;6.154;2023-11-22T02:05:52;19.50;;;12.00;;
47021;SDS011;32779;52.264;6.154;2023-11-22T02:08:19;20.48;;;12.30;;
47021;SDS011;32779;52.264;6.154;2023-11-22T02:10:44;21.55;;;12.98;;
47021;SDS011;32779;52.264;6.154;2023-11-22T02:13:14;19.95;;;12.65;;
47021;SDS011;32779;52.264;6.154;2023-11-22T02:15:39;18.00;;;11.85;;
47021;SDS011;32779;52.264;6.154;2023-11-22T02:18:05;23.53;;;13.27;;
47021;SDS011;32779;52.264;6.154;2023-11-22T02:20:31;23.73;;;13.02;;
47021;SDS011;32779;52.264;6.154;2023-11-22T02:23:01;21.58;;;13.02;;
47021;SDS011;32779;52.264;6.154;2023-11-22T02:25:32;19.88;;;12.65;;
47021;SDS011;32779;52.264;6.154;2023-11-22T02:30:24;17.30;;;11.43;;
47021;SDS011;32779;52.264;6.154;2023-11-22T02:32:50;19.83;;;12.13;;
47021;SDS011;32779;52.264;6.154;2023-11-22T02:35:16;19.92;;;12.55;;
47021;SDS011;32779;52.264;6.154;2023-11-22T02:37:43;20.08;;;11.95;;
47021;SDS011;32779;52.264;6.154;2023-11-22T02:40:20;20.30;;;12.45;;
47021;SDS011;32779;52.264;6.154;2023-11-22T02:42:47;15.40;;;10.82;;
47021;SDS011;32779;52.264;6.154;2023-11-22T02:45:16;19.77;;;11.65;;
47021;SDS011;32779;52.264;6.154;2023-11-22T02:47:48;21.30;;;12.73;;
47021;SDS011;32779;52.264;6.154;2023-11-22T02:50:14;22.10;;;12.57;;
47021;SDS011;32779;52.264;6.154;2023-11-22T02:55:07;22.55;;;11.90;;
47021;SDS011;32779;52.264;6.154;2023-11-22T02:57:36;17.92;;;11.60;;
47021;SDS011;32779;52.264;6.154;2023-11-22T03:02:32;18.05;;;10.90;;
47021;SDS011;32779;52.264;6.154;2023-11-22T03:04:58;20.27;;;12.35;;
47021;SDS011;32779;52.264;6.154;2023-11-22T03:07:25;15.80;;;10.63;;
47021;SDS011;32779;52.264;6.154;2023-11-22T03:09:51;16.88;;;11.10;;
47021;SDS011;32779;52.264;6.154;2023-11-22T03:12:18;16.42;;;10.57;;
47021;SDS011;32779;52.264;6.154;2023-11-22T03:14:45;17.40;;;11.27;;
47021;SDS011;32779;52.264;6.154;2023-11-22T03:19:40;17.60;;;10.57;;
47021;SDS011;32779;52.264;6.154;2023-11-22T03:22:06;19.60;;;11.77;;
47021;SDS011;32779;52.264;6.154;2023-11-22T03:24:32;16.85;;;10.50;;
47021;SDS011;32779;52.264;6.154;2023-11-22T03:27:02;17.25;;;11.38;;
47021;SDS011;32779;52.264;6.154;2023-11-22T03:29:28;17.45;;;11.10;;
47021;SDS011;32779;52.264;6.154;2023-11-22T03:31:54;17.35;;;10.57;;
47021;SDS011;32779;52.264;6.154;2023-11-22T03:34:20;18.65;;;12.07;;
47021;SDS011;32779;52.264;6.154;2023-11-22T03:36:46;19.70;;;12.55;;
47021;SDS011;32779;52.264;6.154;2023-11-22T03:39:12;18.70;;;11.95;;
47021;SDS011;32779;52.264;6.154;2023-11-22T03:41:39;19.08;;;11.82;;
47021;SDS011;32779;52.264;6.154;2023-11-22T03:44:05;17.13;;;11.95;;
47021;SDS011;32779;52.264;6.154;2023-11-22T03:46:34;15.88;;;10.80;;
47021;SDS011;32779;52.264;6.154;2023-11-22T03:49:03;17.55;;;11.10;;
47021;SDS011;32779;52.264;6.154;2023-11-22T03:51:29;19.50;;;10.98;;
47021;SDS011;32779;52.264;6.154;2023-11-22T03:53:55;18.85;;;10.05;;
47021;SDS011;32779;52.264;6.154;2023-11-22T03:56:21;20.88;;;10.80;;
47021;SDS011;32779;52.264;6.154;2023-11-22T03:58:47;17.70;;;10.03;;
47021;SDS011;32779;52.264;6.154;2023-11-22T04:01:13;16.58;;;10.15;;
47021;SDS011;32779;52.264;6.154;2023-11-22T04:03:40;18.05;;;10.70;;
47021;SDS011;32779;52.264;6.154;2023-11-22T04:06:07;17.42;;;10.23;;
47021;SDS011;32779;52.264;6.154;2023-11-22T04:08:32;17.95;;;10.50;;
47021;SDS011;32779;52.264;6.154;2023-11-22T04:10:58;17.75;;;10.95;;
47021;SDS011;32779;52.264;6.154;2023-11-22T04:13:23;19.38;;;10.93;;
47021;SDS011;32779;52.264;6.154;2023-11-22T04:15:50;19.02;;;10.88;;
47021;SDS011;32779;52.264;6.154;2023-11-22T04:20:42;18.83;;;11.13;;
47021;SDS011;32779;52.264;6.154;2023-11-22T04:23:07;16.40;;;10.63;;
47021;SDS011;32779;52.264;6.154;2023-11-22T04:25:37;16.30;;;10.40;;
47021;SDS011;32779;52.264;6.154;2023-11-22T04:28:02;15.88;;;10.43;;
47021;SDS011;32779;52.264;6.154;2023-11-22T04:30:28;19.40;;;11.65;;
47021;SDS011;32779;52.264;6.154;2023-11-22T04:32:54;17.55;;;11.00;;
47021;SDS011;32779;52.264;6.154;2023-11-22T04:35:20;18.58;;;10.20;;
47021;SDS011;32779;52.264;6.154;2023-11-22T04:37:45;19.48;;;10.77;;
47021;SDS011;32779;52.264;6.154;2023-11-22T04:40:12;16.77;;;10.45;;
47021;SDS011;32779;52.264;6.154;2023-11-22T04:42:39;17.73;;;10.60;;
47021;SDS011;32779;52.264;6.154;2023-11-22T04:45:05;18.88;;;10.57;;
47021;SDS011;32779;52.264;6.154;2023-11-22T04:47:32;19.77;;;11.15;;
47021;SDS011;32779;52.264;6.154;2023-11-22T04:49:57;17.63;;;11.35;;
47021;SDS011;32779;52.264;6.154;2023-11-22T04:52:23;16.23;;;9.85;;
47021;SDS011;32779;52.264;6.154;2023-11-22T04:54:49;18.00;;;10.95;;
47021;SDS011;32779;52.264;6.154;2023-11-22T04:57:14;17.20;;;11.05;;
47021;SDS011;32779;52.264;6.154;2023-11-22T04:59:40;18.85;;;10.73;;
47021;SDS011;32779;52.264;6.154;2023-11-22T05:02:06;17.10;;;10.60;;
47021;SDS011;32779;52.264;6.154;2023-11-22T05:04:32;17.92;;;11.13;;
47021;SDS011;32779;52.264;6.154;2023-11-22T05:09:24;20.05;;;10.55;;
47021;SDS011;32779;52.264;6.154;2023-11-22T05:11:49;17.52;;;11.38;;
47021;SDS011;32779;52.264;6.154;2023-11-22T05:14:17;18.02;;;11.05;;
47021;SDS011;32779;52.264;6.154;2023-11-22T05:16:42;18.90;;;11.35;;
47021;SDS011;32779;52.264;6.154;2023-11-22T05:19:08;18.25;;;11.13;;
47021;SDS011;32779;52.264;6.154;2023-11-22T05:21:34;18.23;;;10.75;;
47021;SDS011;32779;52.264;6.154;2023-11-22T05:23:59;21.23;;;11.15;;
47021;SDS011;32779;52.264;6.154;2023-11-22T05:26:25;20.67;;;11.40;;
47021;SDS011;32779;52.264;6.154;2023-11-22T05:28:52;17.85;;;11.40;;
47021;SDS011;32779;52.264;6.154;2023-11-22T05:31:19;18.80;;;11.60;;
47021;SDS011;32779;52.264;6.154;2023-11-22T05:33:45;22.45;;;11.55;;
47021;SDS011;32779;52.264;6.154;2023-11-22T05:36:11;24.48;;;11.68;;
47021;SDS011;32779;52.264;6.154;2023-11-22T05:38:37;21.67;;;12.00;;
47021;SDS011;32779;52.264;6.154;2023-11-22T05:41:03;21.42;;;11.50;;
47021;SDS011;32779;52.264;6.154;2023-11-22T05:43:29;19.00;;;11.52;;
47021;SDS011;32779;52.264;6.154;2023-11-22T05:48:21;17.77;;;10.75;;
47021;SDS011;32779;52.264;6.154;2023-11-22T05:50:46;24.10;;;12.40;;
47021;SDS011;32779;52.264;6.154;2023-11-22T05:53:12;16.83;;;11.68;;
47021;SDS011;32779;52.264;6.154;2023-11-22T05:55:44;20.55;;;11.65;;
47021;SDS011;32779;52.264;6.154;2023-11-22T05:58:12;19.92;;;12.43;;
47021;SDS011;32779;52.264;6.154;2023-11-22T06:00:41;18.90;;;10.27;;
47021;SDS011;32779;52.264;6.154;2023-11-22T06:03:08;17.70;;;11.27;;
47021;SDS011;32779;52.264;6.154;2023-11-22T06:05:33;17.98;;;11.50;;
47021;SDS011;32779;52.264;6.154;2023-11-22T06:07:59;16.63;;;10.77;;
47021;SDS011;32779;52.264;6.154;2023-11-22T06:10:25;18.65;;;11.20;;
47021;SDS011;32779;52.264;6.154;2023-11-22T06:12:51;20.02;;;11.98;;
47021;SDS011;32779;52.264;6.154;2023-11-22T06:15:17;19.00;;;11.63;;
47021;SDS011;32779;52.264;6.154;2023-11-22T06:17:45;23.92;;;12.20;;
47021;SDS011;32779;52.264;6.154;2023-11-22T06:22:38;20.85;;;11.73;;
47021;SDS011;32779;52.264;6.154;2023-11-22T06:25:06;20.00;;;11.55;;
47021;SDS011;32779;52.264;6.154;2023-11-22T06:27:38;19.70;;;11.50;;
47021;SDS011;32779;52.264;6.154;2023-11-22T06:30:05;18.52;;;11.68;;
47021;SDS011;32779;52.264;6.154;2023-11-22T06:35:00;21.42;;;11.50;;
47021;SDS011;32779;52.264;6.154;2023-11-22T06:37:26;19.33;;;11.63;;
47021;SDS011;32779;52.264;6.154;2023-11-22T06:39:52;23.83;;;12.38;;
47021;SDS011;32779;52.264;6.154;2023-11-22T06:42:18;22.25;;;13.15;;
47021;SDS011;32779;52.264;6.154;2023-11-22T06:44:47;21.08;;;12.90;;
47021;SDS011;32779;52.264;6.154;2023-11-22T06:47:13;21.70;;;12.82;;
47021;SDS011;32779;52.264;6.154;2023-11-22T06:49:38;19.33;;;12.38;;
47021;SDS011;32779;52.264;6.154;2023-11-22T06:52:04;22.58;;;13.30;;
47021;SDS011;32779;52.264;6.154;2023-11-22T06:54:30;22.23;;;13.07;;
47021;SDS011;32779;52.264;6.154;2023-11-22T06:56:56;23.13;;;13.27;;
47021;SDS011;32779;52.264;6.154;2023-11-22T07:01:48;25.20;;;13.20;;
47021;SDS011;32779;52.264;6.154;2023-11-22T07:04:13;27.83;;;13.98;;
47021;SDS011;32779;52.264;6.154;2023-11-22T07:06:39;24.33;;;13.73;;
47021;SDS011;32779;52.264;6.154;2023-11-22T07:09:05;24.05;;;14.13;;
47021;SDS011;32779;52.264;6.154;2023-11-22T07:11:34;24.50;;;13.85;;
47021;SDS011;32779;52.264;6.154;2023-11-22T07:14:02;25.85;;;15.05;;
47021;SDS011;32779;52.264;6.154;2023-11-22T07:16:29;26.90;;;14.60;;
47021;SDS011;32779;52.264;6.154;2023-11-22T07:18:55;24.45;;;14.45;;
47021;SDS011;32779;52.264;6.154;2023-11-22T07:21:22;24.23;;;14.10;;
47021;SDS011;32779;52.264;6.154;2023-11-22T07:23:47;24.30;;;14.38;;
47021;SDS011;32779;52.264;6.154;2023-11-22T07:26:13;26.00;;;15.07;;
47021;SDS011;32779;52.264;6.154;2023-11-22T07:28:40;28.13;;;15.02;;
47021;SDS011;32779;52.264;6.154;2023-11-22T07:31:09;25.73;;;14.63;;
47021;SDS011;32779;52.264;6.154;2023-11-22T07:33:35;28.10;;;15.77;;
47021;SDS011;32779;52.264;6.154;2023-11-22T07:36:00;23.40;;;14.23;;
47021;SDS011;32779;52.264;6.154;2023-11-22T07:38:28;25.00;;;15.85;;
47021;SDS011;32779;52.264;6.154;2023-11-22T07:40:54;26.23;;;16.00;;
47021;SDS011;32779;52.264;6.154;2023-11-22T07:43:21;24.65;;;14.57;;
47021;SDS011;32779;52.264;6.154;2023-11-22T07:45:47;30.92;;;17.05;;
47021;SDS011;32779;52.264;6.154;2023-11-22T07:48:15;28.80;;;16.50;;
47021;SDS011;32779;52.264;6.154;2023-11-22T07:50:41;33.97;;;17.38;;
47021;SDS011;32779;52.264;6.154;2023-11-22T07:53:10;35.45;;;18.25;;
47021;SDS011;32779;52.264;6.154;2023-11-22T07:55:37;33.85;;;19.17;;
47021;SDS011;32779;52.264;6.154;2023-11-22T07:58:03;30.95;;;18.13;;
47021;SDS011;32779;52.264;6.154;2023-11-22T08:00:31;33.58;;;20.38;;
47021;SDS011;32779;52.264;6.154;2023-11-22T08:02:58;35.47;;;19.08;;
47021;SDS011;32779;52.264;6.154;2023-11-22T08:05:26;35.55;;;19.42;;
47021;SDS011;32779;52.264;6.154;2023-11-22T08:07:53;34.25;;;19.48;;
47021;SDS011;32779;52.264;6.154;2023-11-22T08:10:18;39.60;;;19.85;;
47021;SDS011;32779;52.264;6.154;2023-11-22T08:12:47;37.75;;;19.15;;
47021;SDS011;32779;52.264;6.154;2023-11-22T08:15:16;32.13;;;17.88;;
47021;SDS011;32779;52.264;6.154;2023-11-22T08:17:44;31.55;;;18.00;;
47021;SDS011;32779;52.264;6.154;2023-11-22T08:20:10;28.38;;;16.30;;
47021;SDS011;32779;52.264;6.154;2023-11-22T08:22:42;27.30;;;17.38;;
47021;SDS011;32779;52.264;6.154;2023-11-22T08:25:10;31.15;;;17.48;;
47021;SDS011;32779;52.264;6.154;2023-11-22T08:27:40;37.00;;;19.27;;
47021;SDS011;32779;52.264;6.154;2023-11-22T08:30:08;32.45;;;18.23;;
47021;SDS011;32779;52.264;6.154;2023-11-22T08:32:39;32.25;;;16.95;;
47021;SDS011;32779;52.264;6.154;2023-11-22T08:35:06;33.17;;;18.17;;
47021;SDS011;32779;52.264;6.154;2023-11-22T08:37:33;30.55;;;17.65;;
47021;SDS011;32779;52.264;6.154;2023-11-22T08:40:00;27.60;;;16.80;;
47021;SDS011;32779;52.264;6.154;2023-11-22T08:44:52;31.80;;;15.88;;
47021;SDS011;32779;52.264;6.154;2023-11-22T08:47:18;28.27;;;16.52;;
47021;SDS011;32779;52.264;6.154;2023-11-22T08:49:43;30.35;;;16.60;;
47021;SDS011;32779;52.264;6.154;2023-11-22T08:52:09;30.17;;;16.95;;
47021;SDS011;32779;52.264;6.154;2023-11-22T08:54:37;28.30;;;17.40;;
47021;SDS011;32779;52.264;6.154;2023-11-22T08:57:02;29.48;;;16.83;;
47021;SDS011;32779;52.264;6.154;2023-11-22T08:59:28;30.02;;;17.27;;
47021;SDS011;32779;52.264;6.154;2023-11-22T09:01:54;25.52;;;16.20;;
47021;SDS011;32779;52.264;6.154;2023-11-22T09:04:19;31.98;;;15.77;;
47021;SDS011;32779;52.264;6.154;2023-11-22T09:06:45;27.73;;;17.35;;
47021;SDS011;32779;52.264;6.154;2023-11-22T09:09:12;26.10;;;16.25;;
47021;SDS011;32779;52.264;6.154;2023-11-22T09:11:40;26.30;;;16.80;;
47021;SDS011;32779;52.264;6.154;2023-11-22T09:14:06;30.00;;;16.98;;
47021;SDS011;32779;52.264;6.154;2023-11-22T09:16:38;28.38;;;16.80;;
47021;SDS011;32779;52.264;6.154;2023-11-22T09:19:04;27.25;;;16.08;;
47021;SDS011;32779;52.264;6.154;2023-11-22T09:21:32;25.65;;;16.15;;
47021;SDS011;32779;52.264;6.154;2023-11-22T09:23:58;24.90;;;15.73;;
47021;SDS011;32779;52.264;6.154;2023-11-22T09:26:24;24.20;;;16.05;;
47021;SDS011;32779;52.264;6.154;2023-11-22T09:28:50;25.25;;;16.50;;
47021;SDS011;32779;52.264;6.154;2023-11-22T09:31:15;28.00;;;16.90;;
47021;SDS011;32779;52.264;6.154;2023-11-22T09:33:45;27.27;;;16.67;;
47021;SDS011;32779;52.264;6.154;2023-11-22T09:36:11;24.75;;;16.25;;
47021;SDS011;32779;52.264;6.154;2023-11-22T09:38:38;29.85;;;16.92;;
47021;SDS011;32779;52.264;6.154;2023-11-22T09:41:04;26.08;;;15.15;;
47021;SDS011;32779;52.264;6.154;2023-11-22T09:43:30;25.42;;;15.52;;
47021;SDS011;32779;52.264;6.154;2023-11-22T09:45:56;25.27;;;15.18;;
47021;SDS011;32779;52.264;6.154;2023-11-22T09:48:22;26.90;;;15.68;;
47021;SDS011;32779;52.264;6.154;2023-11-22T09:51:08;27.00;;;15.52;;
47021;SDS011;32779;52.264;6.154;2023-11-22T09:53:53;26.92;;;15.60;;
47021;SDS011;32779;52.264;6.154;2023-11-22T09:56:21;24.65;;;14.98;;
47021;SDS011;32779;52.264;6.154;2023-11-22T09:58:48;25.60;;;15.63;;
47021;SDS011;32779;52.264;6.154;2023-11-22T10:01:19;22.75;;;14.95;;
47021;SDS011;32779;52.264;6.154;2023-11-22T10:03:47;26.33;;;15.48;;
47021;SDS011;32779;52.264;6.154;2023-11-22T10:06:13;23.90;;;15.20;;
47021;SDS011;32779;52.264;6.154;2023-11-22T10:08:40;25.10;;;14.55;;
47021;SDS011;32779;52.264;6.154;2023-11-22T10:11:06;22.75;;;13.88;;
47021;SDS011;32779;52.264;6.154;2023-11-22T10:13:32;22.67;;;15.15;;
47021;SDS011;32779;52.264;6.154;2023-11-22T10:16:09;23.75;;;14.25;;
47021;SDS011;32779;52.264;6.154;2023-11-22T10:18:39;21.80;;;14.13;;
47021;SDS011;32779;52.264;6.154;2023-11-22T10:23:50;23.73;;;13.93;;
47021;SDS011;32779;52.264;6.154;2023-11-22T10:26:19;21.85;;;13.02;;
47021;SDS011;32779;52.264;6.154;2023-11-22T10:28:44;23.58;;;14.00;;
47021;SDS011;32779;52.264;6.154;2023-11-22T10:31:10;19.38;;;12.80;;
47021;SDS011;32779;52.264;6.154;2023-11-22T10:33:39;20.50;;;12.45;;
47021;SDS011;32779;52.264;6.154;2023-11-22T10:36:09;19.95;;;12.60;;
47021;SDS011;32779;52.264;6.154;2023-11-22T10:38:35;18.20;;;11.70;;
47021;SDS011;32779;52.264;6.154;2023-11-22T10:41:03;19.75;;;11.75;;
47021;SDS011;32779;52.264;6.154;2023-11-22T10:43:33;20.88;;;12.60;;
47021;SDS011;32779;52.264;6.154;2023-11-22T10:46:01;21.02;;;12.43;;
47021;SDS011;32779;52.264;6.154;2023-11-22T10:48:27;17.25;;;11.20;;
47021;SDS011;32779;52.264;6.154;2023-11-22T10:50:55;17.85;;;11.80;;
47021;SDS011;32779;52.264;6.154;2023-11-22T10:53:37;20.45;;;11.20;;
47021;SDS011;32779;52.264;6.154;2023-11-22T10:56:15;17.85;;;10.40;;
47021;SDS011;32779;52.264;6.154;2023-11-22T11:01:19;20.83;;;10.82;;
47021;SDS011;32779;52.264;6.154;2023-11-22T11:03:45;16.73;;;11.13;;
47021;SDS011;32779;52.264;6.154;2023-11-22T11:06:20;16.13;;;10.68;;
47021;SDS011;32779;52.264;6.154;2023-11-22T11:08:53;19.73;;;12.20;;
47021;SDS011;32779;52.264;6.154;2023-11-22T11:11:24;17.80;;;11.52;;
47021;SDS011;32779;52.264;6.154;2023-11-22T11:13:55;18.25;;;12.48;;
47021;SDS011;32779;52.264;6.154;2023-11-22T11:16:21;18.45;;;12.35;;
47021;SDS011;32779;52.264;6.154;2023-11-22T11:18:48;21.52;;;11.63;;
47021;SDS011;32779;52.264;6.154;2023-11-22T11:21:14;16.88;;;11.98;;
47021;SDS011;32779;52.264;6.154;2023-11-22T11:23:40;17.58;;;11.55;;
47021;SDS011;32779;52.264;6.154;2023-11-22T11:26:15;16.60;;;12.48;;
47021;SDS011;32779;52.264;6.154;2023-11-22T11:28:44;19.15;;;12.43;;
47021;SDS011;32779;52.264;6.154;2023-11-22T11:31:15;18.02;;;12.00;;
47021;SDS011;32779;52.264;6.154;2023-11-22T11:36:13;19.90;;;12.70;;
47021;SDS011;32779;52.264;6.154;2023-11-22T11:39:05;20.42;;;11.93;;
47021;SDS011;32779;52.264;6.154;2023-11-22T11:41:39;25.85;;;12.95;;
47021;SDS011;32779;52.264;6.154;2023-11-22T11:44:09;20.30;;;11.82;;
47021;SDS011;32779;52.264;6.154;2023-11-22T11:46:36;20.33;;;12.35;;
47021;SDS011;32779;52.264;6.154;2023-11-22T11:49:06;18.25;;;12.05;;
47021;SDS011;32779;52.264;6.154;2023-11-22T11:51:33;21.63;;;11.85;;
47021;SDS011;32779;52.264;6.154;2023-11-22T11:53:58;18.02;;;11.20;;
47021;SDS011;32779;52.264;6.154;2023-11-22T11:56:24;16.88;;;11.88;;
47021;SDS011;32779;52.264;6.154;2023-11-22T11:58:51;21.50;;;12.93;;
47021;SDS011;32779;52.264;6.154;2023-11-22T12:01:22;16.65;;;10.88;;
47021;SDS011;32779;52.264;6.154;2023-11-22T12:03:48;18.50;;;12.18;;
47021;SDS011;32779;52.264;6.154;2023-11-22T12:06:14;19.85;;;10.75;;
47021;SDS011;32779;52.264;6.154;2023-11-22T12:08:41;17.02;;;11.05;;
47021;SDS011;32779;52.264;6.154;2023-11-22T12:11:07;18.67;;;10.95;;
47021;SDS011;32779;52.264;6.154;2023-11-22T12:13:33;15.90;;;10.75;;
47021;SDS011;32779;52.264;6.154;2023-11-22T12:16:00;14.63;;;10.90;;
47021;SDS011;32779;52.264;6.154;2023-11-22T12:18:29;17.15;;;10.52;;
47021;SDS011;32779;52.264;6.154;2023-11-22T12:20:57;20.90;;;11.23;;
47021;SDS011;32779;52.264;6.154;2023-11-22T12:23:24;16.38;;;10.10;;
47021;SDS011;32779;52.264;6.154;2023-11-22T12:25:59;14.77;;;9.82;;
47021;SDS011;32779;52.264;6.154;2023-11-22T12:28:27;15.85;;;10.20;;
47021;SDS011;32779;52.264;6.154;2023-11-22T12:30:55;18.92;;;10.45;;
47021;SDS011;32779;52.264;6.154;2023-11-22T12:33:31;19.17;;;11.13;;
47021;SDS011;32779;52.264;6.154;2023-11-22T12:35:57;17.75;;;10.30;;
47021;SDS011;32779;52.264;6.154;2023-11-22T12:38:23;15.10;;;9.43;;
47021;SDS011;32779;52.264;6.154;2023-11-22T12:40:51;13.13;;;9.45;;
47021;SDS011;32779;52.264;6.154;2023-11-22T12:43:16;15.82;;;10.15;;
47021;SDS011;32779;52.264;6.154;2023-11-22T12:45:42;14.02;;;9.60;;
47021;SDS011;32779;52.264;6.154;2023-11-22T12:48:20;15.15;;;10.00;;
47021;SDS011;32779;52.264;6.154;2023-11-22T12:50:49;17.27;;;10.10;;
47021;SDS011;32779;52.264;6.154;2023-11-22T12:53:16;14.85;;;9.90;;
47021;SDS011;32779;52.264;6.154;2023-11-22T12:55:46;13.60;;;9.32;;
47021;SDS011;32779;52.264;6.154;2023-11-22T12:58:15;16.50;;;9.77;;
47021;SDS011;32779;52.264;6.154;2023-11-22T13:00:43;13.18;;;8.60;;
47021;SDS011;32779;52.264;6.154;2023-11-22T13:03:10;12.85;;;8.27;;
47021;SDS011;32779;52.264;6.154;2023-11-22T13:08:02;13.73;;;8.90;;
47021;SDS011;32779;52.264;6.154;2023-11-22T13:10:29;12.35;;;8.60;;
47021;SDS011;32779;52.264;6.154;2023-11-22T13:12:55;12.82;;;8.10;;
47021;SDS011;32779;52.264;6.154;2023-11-22T13:15:21;11.52;;;8.65;;
47021;SDS011;32779;52.264;6.154;2023-11-22T13:17:54;17.88;;;10.10;;
47021;SDS011;32779;52.264;6.154;2023-11-22T13:20:26;11.40;;;8.25;;
47021;SDS011;32779;52.264;6.154;2023-11-22T13:22:53;14.68;;;8.80;;
47021;SDS011;32779;52.264;6.154;2023-11-22T13:25:19;13.70;;;8.93;;
47021;SDS011;32779;52.264;6.154;2023-11-22T13:27:51;15.50;;;9.18;;
47021;SDS011;32779;52.264;6.154;2023-11-22T13:30:18;15.50;;;8.90;;
47021;SDS011;32779;52.264;6.154;2023-11-22T13:32:49;12.18;;;8.48;;
47021;SDS011;32779;52.264;6.154;2023-11-22T13:35:16;12.57;;;8.80;;
47021;SDS011;32779;52.264;6.154;2023-11-22T13:37:46;55.25;;;31.10;;
47021;SDS011;32779;52.264;6.154;2023-11-22T13:40:16;28.85;;;16.65;;
47021;SDS011;32779;52.264;6.154;2023-11-22T13:42:46;20.00;;;12.32;;
47021;SDS011;32779;52.264;6.154;2023-11-22T13:45:15;16.52;;;10.50;;
47021;SDS011;32779;52.264;6.154;2023-11-22T13:47:42;15.88;;;11.27;;
47021;SDS011;32779;52.264;6.154;2023-11-22T13:50:15;23.45;;;16.52;;
47021;SDS011;32779;52.264;6.154;2023-11-22T13:52:52;27.35;;;15.38;;
47021;SDS011;32779;52.264;6.154;2023-11-22T13:55:18;27.75;;;17.05;;
47021;SDS011;32779;52.264;6.154;2023-11-22T13:57:48;18.63;;;11.63;;
47021;SDS011;32779;52.264;6.154;2023-11-22T14:00:15;18.60;;;11.82;;
47021;SDS011;32779;52.264;6.154;2023-11-22T14:02:44;18.33;;;11.55;;
47021;SDS011;32779;52.264;6.154;2023-11-22T14:05:11;14.57;;;10.32;;
47021;SDS011;32779;52.264;6.154;2023-11-22T14:07:37;16.35;;;10.68;;
47021;SDS011;32779;52.264;6.154;2023-11-22T14:10:04;18.90;;;11.40;;
47021;SDS011;32779;52.264;6.154;2023-11-22T14:12:31;17.00;;;10.88;;
47021;SDS011;32779;52.264;6.154;2023-11-22T14:17:23;17.20;;;11.30;;
47021;SDS011;32779;52.264;6.154;2023-11-22T14:19:50;19.60;;;11.27;;
47021;SDS011;32779;52.264;6.154;2023-11-22T14:22:15;17.83;;;13.65;;
47021;SDS011;32779;52.264;6.154;2023-11-22T14:24:42;17.80;;;12.05;;
47021;SDS011;32779;52.264;6.154;2023-11-22T14:27:10;20.20;;;12.43;;
47021;SDS011;32779;52.264;6.154;2023-11-22T14:29:37;19.58;;;12.25;;
47021;SDS011;32779;52.264;6.154;2023-11-22T14:32:03;19.95;;;13.23;;
47021;SDS011;32779;52.264;6.154;2023-11-22T14:34:29;19.40;;;12.80;;
47021;SDS011;32779;52.264;6.154;2023-11-22T14:36:55;20.00;;;13.00;;
47021;SDS011;32779;52.264;6.154;2023-11-22T14:39:21;18.33;;;12.65;;
47021;SDS011;32779;52.264;6.154;2023-11-22T14:41:47;20.65;;;12.98;;
47021;SDS011;32779;52.264;6.154;2023-11-22T14:44:12;21.00;;;13.23;;
47021;SDS011;32779;52.264;6.154;2023-11-22T14:49:04;20.58;;;12.32;;
47021;SDS011;32779;52.264;6.154;2023-11-22T14:53:58;23.20;;;13.18;;
47021;SDS011;32779;52.264;6.154;2023-11-22T14:56:24;22.42;;;14.38;;
47021;SDS011;32779;52.264;6.154;2023-11-22T14:58:50;24.20;;;13.20;;
47021;SDS011;32779;52.264;6.154;2023-11-22T15:01:19;21.92;;;12.93;;
47021;SDS011;32779;52.264;6.154;2023-11-22T15:03:46;21.63;;;14.23;;
47021;SDS011;32779;52.264;6.154;2023-11-22T15:06:14;22.25;;;14.38;;
47021;SDS011;32779;52.264;6.154;2023-11-22T15:08:40;26.55;;;15.23;;
47021;SDS011;32779;52.264;6.154;2023-11-22T15:11:06;26.15;;;15.55;;
47021;SDS011;32779;52.264;6.154;2023-11-22T15:13:32;24.40;;;15.32;;